createdAt,value
2022-08-23T00:00:01.164Z,18.24
2022-08-23T00:02:43.536Z,18.20
2022-08-23T00:05:12.964Z,18.17
2022-08-23T00:07:43.629Z,18.14
2022-08-23T00:10:14.111Z,18.13
2022-08-23T00:12:42.378Z,18.07
2022-08-23T00:15:12.021Z,18.03
2022-08-23T00:17:42.135Z,17.99
2022-08-23T00:20:14.074Z,17.97
2022-08-23T00:22:42.465Z,17.91
2022-08-23T00:25:12.425Z,17.89
2022-08-23T00:27:40.611Z,17.87
2022-08-23T00:30:10.716Z,17.84
2022-08-23T00:32:40.216Z,17.81
2022-08-23T00:35:11.235Z,17.80
2022-08-23T00:37:39.869Z,17.77
2022-08-23T00:40:10.987Z,17.76
2022-08-23T00:42:59.907Z,17.73
2022-08-23T00:45:50.018Z,17.70
2022-08-23T00:48:18.174Z,17.67
2022-08-23T00:50:53.087Z,17.63
2022-08-23T00:53:25.551Z,17.60
2022-08-23T00:55:55.867Z,17.60
2022-08-23T00:58:24.068Z,17.58
2022-08-23T01:00:55.137Z,17.58
2022-08-23T01:03:24.304Z,17.58
2022-08-23T01:05:57.971Z,17.59
2022-08-23T01:08:28.399Z,17.59
2022-08-23T01:11:00.319Z,17.59
2022-08-23T01:13:33.748Z,17.62
2022-08-23T01:16:05.931Z,17.63
2022-08-23T01:18:34.525Z,17.59
2022-08-23T01:21:13.374Z,17.59
2022-08-23T01:23:45.196Z,17.53
2022-08-23T01:26:14.946Z,17.53
2022-08-23T01:28:50.035Z,17.52
2022-08-23T01:31:19.535Z,17.50
2022-08-23T01:33:51.895Z,17.48
2022-08-23T01:36:19.931Z,17.49
2022-08-23T01:38:49.757Z,17.49
2022-08-23T01:41:17.755Z,17.46
2022-08-23T01:43:46.268Z,17.46
2022-08-23T01:46:18.642Z,17.43
2022-08-23T01:48:47.564Z,17.45
2022-08-23T01:51:17.093Z,17.45
2022-08-23T01:53:46.487Z,17.43
2022-08-23T01:56:27.539Z,17.43
2022-08-23T01:59:06.560Z,17.41
2022-08-23T02:01:34.779Z,17.42
2022-08-23T02:04:05.317Z,17.41
2022-08-23T02:06:33.970Z,17.41
2022-08-23T02:09:03.406Z,17.41
2022-08-23T02:11:35.459Z,17.38
2022-08-23T02:14:06.495Z,17.35
2022-08-23T02:16:38.059Z,17.34
2022-08-23T02:19:08.437Z,17.34
2022-08-23T02:21:38.082Z,17.32
2022-08-23T02:24:08.668Z,17.32
2022-08-23T02:26:38.520Z,17.31
2022-08-23T02:29:07.370Z,17.32
2022-08-23T02:31:37.592Z,17.29
2022-08-23T02:36:51.523Z,17.28
2022-08-23T02:39:19.642Z,17.28
2022-08-23T02:41:49.825Z,17.27
2022-08-23T02:44:18.498Z,17.29
2022-08-23T02:46:46.956Z,17.27
2022-08-23T02:49:16.042Z,17.28
2022-08-23T02:51:44.438Z,17.29
2022-08-23T02:54:12.542Z,17.31
2022-08-23T02:56:40.836Z,17.28
2022-08-23T02:59:10.203Z,17.24
2022-08-23T03:01:39.982Z,17.27
2022-08-23T03:04:09.324Z,17.24
2022-08-23T03:06:37.721Z,17.27
2022-08-23T03:09:07.639Z,17.25
2022-08-23T03:11:35.866Z,17.21
2022-08-23T03:14:03.913Z,17.24
2022-08-23T03:16:33.442Z,17.22
2022-08-23T03:19:02.246Z,17.19
2022-08-23T03:21:31.223Z,17.21
2022-08-23T03:24:00.708Z,17.16
2022-08-23T03:26:28.684Z,17.16
2022-08-23T03:28:57.064Z,17.18
2022-08-23T03:31:25.374Z,17.19
2022-08-23T03:33:59.267Z,17.16
2022-08-23T03:36:28.140Z,17.16
2022-08-23T03:38:56.539Z,17.15
2022-08-23T03:41:25.291Z,17.15
2022-08-23T03:43:53.629Z,17.14
2022-08-23T03:46:23.980Z,17.14
2022-08-23T03:48:52.180Z,17.12
2022-08-23T03:51:22.270Z,17.12
2022-08-23T03:53:50.426Z,17.15
2022-08-23T03:56:30.926Z,17.15
2022-08-23T03:59:00.769Z,17.15
2022-08-23T04:01:29.081Z,17.12
2022-08-23T04:03:59.942Z,17.15
2022-08-23T04:06:29.836Z,17.15
2022-08-23T04:08:57.889Z,17.15
2022-08-23T04:11:26.409Z,17.12
2022-08-23T04:13:54.415Z,17.12
2022-08-23T04:16:22.706Z,17.10
2022-08-23T04:18:50.725Z,17.10
2022-08-23T04:21:23.365Z,17.10
2022-08-23T04:23:52.727Z,17.05
2022-08-23T04:26:21.434Z,17.05
2022-08-23T04:28:49.423Z,17.02
2022-08-23T04:31:18.391Z,17.02
2022-08-23T04:33:46.436Z,17.02
2022-08-23T04:36:20.624Z,17.04
2022-08-23T04:38:52.651Z,17.01
2022-08-23T04:41:38.273Z,17.04
2022-08-23T04:44:06.834Z,17.04
2022-08-23T04:46:35.527Z,17.02
2022-08-23T04:49:04.477Z,17.02
2022-08-23T04:51:32.726Z,17.02
2022-08-23T04:54:02.078Z,17.01
2022-08-23T04:56:30.479Z,17.00
2022-08-23T04:58:58.758Z,16.98
2022-08-23T05:01:26.826Z,17.00
2022-08-23T05:03:55.373Z,17.00
2022-08-23T05:06:23.490Z,17.02
2022-08-23T05:08:51.497Z,17.02
2022-08-23T05:11:21.428Z,17.05
2022-08-23T05:13:49.502Z,17.05
2022-08-23T05:16:17.907Z,17.08
2022-08-23T05:18:47.119Z,17.18
2022-08-23T05:21:16.772Z,17.25
2022-08-23T05:23:45.133Z,17.29
2022-08-23T05:26:20.858Z,17.38
2022-08-23T05:28:50.117Z,17.46
2022-08-23T05:31:20.044Z,17.55
2022-08-23T05:33:48.303Z,17.66
2022-08-23T05:36:17.859Z,17.76
2022-08-23T05:38:46.950Z,17.84
2022-08-23T05:41:15.288Z,17.93
2022-08-23T05:43:45.431Z,18.10
2022-08-23T05:46:14.807Z,18.20
2022-08-23T05:48:46.862Z,18.34
2022-08-23T05:51:16.909Z,18.48
2022-08-23T05:53:46.019Z,18.56
2022-08-23T05:56:16.284Z,18.65
2022-08-23T05:58:46.248Z,18.71
2022-08-23T06:01:15.599Z,18.75
2022-08-23T06:03:44.308Z,18.71
2022-08-23T06:06:14.968Z,18.82
2022-08-23T06:08:47.050Z,18.89
2022-08-23T06:11:17.995Z,18.86
2022-08-23T06:13:49.316Z,18.96
2022-08-23T06:16:19.868Z,19.03
2022-08-23T06:18:47.994Z,19.08
2022-08-23T06:21:16.560Z,19.14
2022-08-23T06:23:44.620Z,19.17
2022-08-23T06:26:14.921Z,19.14
2022-08-23T06:28:50.926Z,19.23
2022-08-23T06:31:36.764Z,19.28
2022-08-23T06:34:04.853Z,19.40
2022-08-23T06:36:33.336Z,19.47
2022-08-23T06:39:01.328Z,19.57
2022-08-23T06:41:29.649Z,19.62
2022-08-23T06:43:57.621Z,19.68
2022-08-23T06:46:29.520Z,19.72
2022-08-23T06:48:59.535Z,19.78
2022-08-23T06:51:30.364Z,19.82
2022-08-23T06:54:03.009Z,19.90
2022-08-23T06:56:31.774Z,20.09
2022-08-23T06:59:00.136Z,20.16
2022-08-23T07:01:48.489Z,20.22
2022-08-23T07:04:20.071Z,20.27
2022-08-23T07:06:48.208Z,20.27
2022-08-23T07:09:16.551Z,20.36
2022-08-23T07:11:44.515Z,20.47
2022-08-23T07:14:14.582Z,20.60
2022-08-23T07:16:45.851Z,20.78
2022-08-23T07:19:14.290Z,20.94
2022-08-23T07:21:42.817Z,21.06
2022-08-23T07:24:10.860Z,21.25
2022-08-23T07:26:39.620Z,21.50
2022-08-23T07:29:08.269Z,21.81
2022-08-23T07:31:40.289Z,22.10
2022-08-23T07:34:10.228Z,22.42
2022-08-23T07:36:38.449Z,22.68
2022-08-23T07:39:07.662Z,23.04
2022-08-23T07:41:36.093Z,23.38
2022-08-23T07:44:06.597Z,23.54
2022-08-23T07:46:35.512Z,23.67
2022-08-23T07:49:05.181Z,23.77
2022-08-23T07:51:35.697Z,23.79
2022-08-23T07:54:05.617Z,23.85
2022-08-23T07:56:33.747Z,23.82
2022-08-23T07:59:02.383Z,23.88
2022-08-23T08:01:31.034Z,24.01
2022-08-23T08:04:01.354Z,24.16
2022-08-23T08:06:31.105Z,24.33
2022-08-23T08:09:00.708Z,24.60
2022-08-23T08:11:34.523Z,24.83
2022-08-23T08:14:04.651Z,25.04
2022-08-23T08:16:34.397Z,25.46
2022-08-23T08:19:07.576Z,26.17
2022-08-23T08:21:39.615Z,26.76
2022-08-23T08:24:13.482Z,26.54
2022-08-23T08:26:42.167Z,25.66
2022-08-23T08:29:12.158Z,25.72
2022-08-23T08:31:41.635Z,26.27
2022-08-23T08:34:10.226Z,25.92
2022-08-23T08:36:40.365Z,25.86
2022-08-23T08:39:11.904Z,25.35
2022-08-23T08:42:04.268Z,24.95
2022-08-23T08:44:38.435Z,24.94
2022-08-23T08:47:11.231Z,25.07
2022-08-23T08:49:46.193Z,24.91
2022-08-23T08:52:18.672Z,25.17
2022-08-23T08:54:53.246Z,25.56
2022-08-23T08:57:27.743Z,25.83
2022-08-23T09:00:00.122Z,26.48
2022-08-23T09:02:33.626Z,26.75
2022-08-23T09:05:03.913Z,27.26
2022-08-23T09:07:38.337Z,26.60
2022-08-23T09:10:21.199Z,26.05
2022-08-23T09:12:53.400Z,26.86
2022-08-23T09:15:27.221Z,27.33
2022-08-23T09:17:57.105Z,27.60
2022-08-23T09:20:32.874Z,27.53
2022-08-23T09:23:05.647Z,27.47
2022-08-23T09:25:37.071Z,26.33
2022-08-23T09:28:06.103Z,25.59
2022-08-23T09:30:50.033Z,25.05
2022-08-23T09:33:19.967Z,25.31
2022-08-23T09:36:04.837Z,26.05
2022-08-23T09:38:33.704Z,26.38
2022-08-23T09:41:20.367Z,25.87
2022-08-23T09:43:49.829Z,26.31
2022-08-23T09:46:27.008Z,26.54
2022-08-23T09:48:58.263Z,26.10
2022-08-23T09:51:29.949Z,26.37
2022-08-23T09:54:08.249Z,26.65
2022-08-23T09:56:39.932Z,26.24
2022-08-23T09:59:33.610Z,26.24
2022-08-23T10:02:02.556Z,25.67
2022-08-23T10:04:41.469Z,25.72
2022-08-23T10:07:27.926Z,25.90
2022-08-23T10:09:56.253Z,25.65
2022-08-23T10:12:25.655Z,25.49
2022-08-23T10:14:53.832Z,25.55
2022-08-23T10:17:31.011Z,26.04
2022-08-23T10:20:05.977Z,26.79
2022-08-23T10:22:41.150Z,27.23
2022-08-23T10:25:13.410Z,27.00
2022-08-23T10:28:04.327Z,26.54
2022-08-23T10:30:45.928Z,25.90
2022-08-23T10:33:18.633Z,25.63
2022-08-23T10:35:50.772Z,26.16
2022-08-23T10:38:44.101Z,26.28
2022-08-23T10:41:22.072Z,26.88
2022-08-23T10:43:57.731Z,26.95
2022-08-23T10:46:29.237Z,27.18
2022-08-23T10:49:00.066Z,26.92
2022-08-23T10:51:32.328Z,26.37
2022-08-23T10:54:04.223Z,25.82
2022-08-23T10:56:32.473Z,25.73
2022-08-23T10:59:04.978Z,25.84
2022-08-23T11:01:46.887Z,26.24
2022-08-23T11:04:21.633Z,26.18
2022-08-23T11:06:52.413Z,25.92
2022-08-23T11:09:37.208Z,25.62
2022-08-23T11:12:35.634Z,25.59
2022-08-23T11:15:15.166Z,25.41
2022-08-23T11:18:03.595Z,25.14
2022-08-23T11:21:04.784Z,25.59
2022-08-23T11:23:42.598Z,25.83
2022-08-23T11:26:13.437Z,25.76
2022-08-23T11:28:44.061Z,25.75
2022-08-23T11:31:25.461Z,25.55
2022-08-23T11:33:59.875Z,25.34
2022-08-23T11:36:29.224Z,25.22
2022-08-23T11:39:11.706Z,25.26
2022-08-23T11:42:01.503Z,25.38
2022-08-23T11:44:38.273Z,25.38
2022-08-23T11:47:09.890Z,25.24
2022-08-23T11:50:17.265Z,25.50
2022-08-23T11:53:07.745Z,26.23
2022-08-23T11:55:52.870Z,26.60
2022-08-23T11:58:24.242Z,26.73
2022-08-23T12:00:57.389Z,26.67
2022-08-23T12:03:33.520Z,26.48
2022-08-23T12:06:08.951Z,26.51
2022-08-23T12:08:50.326Z,26.72
2022-08-23T12:11:19.211Z,26.40
2022-08-23T12:13:59.597Z,26.16
2022-08-23T12:16:36.615Z,26.20
2022-08-23T12:19:13.552Z,26.61
2022-08-23T12:21:48.351Z,26.96
2022-08-23T12:24:20.450Z,26.52
2022-08-23T12:26:50.695Z,26.23
2022-08-23T12:29:24.504Z,26.25
2022-08-23T12:31:58.978Z,26.30
2022-08-23T12:34:35.032Z,26.23
2022-08-23T12:37:11.009Z,26.09
2022-08-23T12:39:41.398Z,25.79
2022-08-23T12:42:15.529Z,25.63
2022-08-23T12:44:45.046Z,25.49
2022-08-23T12:47:16.379Z,25.42
2022-08-23T12:49:56.043Z,25.34
2022-08-23T12:52:25.915Z,25.50
2022-08-23T12:54:57.656Z,25.53
2022-08-23T12:57:34.678Z,25.55
2022-08-23T13:00:16.636Z,25.36
2022-08-23T13:02:50.210Z,25.24
2022-08-23T13:05:27.640Z,25.07
2022-08-23T13:07:55.747Z,24.94
2022-08-23T13:10:24.912Z,24.97
2022-08-23T13:12:53.125Z,24.91
2022-08-23T13:15:43.806Z,24.83
2022-08-23T13:18:11.882Z,24.91
2022-08-23T13:20:41.225Z,24.99
2022-08-23T13:23:10.202Z,25.05
2022-08-23T13:25:40.083Z,24.98
2022-08-23T13:28:25.630Z,24.97
2022-08-23T13:30:59.837Z,24.77
2022-08-23T13:33:27.895Z,24.80
2022-08-23T13:36:13.078Z,24.88
2022-08-23T13:38:42.115Z,24.94
2022-08-23T13:41:13.813Z,24.99
2022-08-23T13:43:51.018Z,25.04
2022-08-23T13:46:22.486Z,25.14
2022-08-23T13:48:55.917Z,25.26
2022-08-23T13:51:31.438Z,25.38
2022-08-23T13:54:01.472Z,25.49
2022-08-23T13:56:31.080Z,25.47
2022-08-23T13:59:04.352Z,25.45
2022-08-23T14:01:32.805Z,25.45
2022-08-23T14:04:00.980Z,25.56
2022-08-23T14:06:30.416Z,25.53
2022-08-23T14:08:58.409Z,25.35
2022-08-23T14:11:26.431Z,25.21
2022-08-23T14:13:54.474Z,25.25
2022-08-23T14:16:34.153Z,25.31
2022-08-23T14:20:31.409Z,25.28
2022-08-23T14:21:53.792Z,25.17
2022-08-23T14:24:22.037Z,25.14
2022-08-23T14:26:52.297Z,25.12
2022-08-23T14:29:22.578Z,25.21
2022-08-23T14:31:51.468Z,25.35
2022-08-23T14:34:19.531Z,25.47
2022-08-23T14:39:37.129Z,25.61
2022-08-23T14:42:05.757Z,25.49
2022-08-23T14:44:36.157Z,25.49
2022-08-23T14:47:05.685Z,25.32
2022-08-23T14:49:33.816Z,25.29
2022-08-23T14:52:01.926Z,25.19
2022-08-23T14:54:29.944Z,25.12
2022-08-23T14:56:59.319Z,25.24
2022-08-23T14:59:27.382Z,25.18
2022-08-23T15:01:55.777Z,25.10
2022-08-23T15:04:24.747Z,25.10
2022-08-23T15:07:16.810Z,25.15
2022-08-23T15:09:41.353Z,25.11
2022-08-23T15:14:58.953Z,25.02
2022-08-23T15:17:31.226Z,24.95
2022-08-23T15:20:00.398Z,24.88
2022-08-23T15:22:28.526Z,24.81
2022-08-23T15:24:56.517Z,24.81
2022-08-23T15:27:25.936Z,24.84
2022-08-23T15:29:53.918Z,24.86
2022-08-23T15:32:22.264Z,24.95
2022-08-23T15:34:51.271Z,24.97
2022-08-23T15:37:21.006Z,24.97
2022-08-23T15:39:50.482Z,25.04
2022-08-23T15:42:20.448Z,25.07
2022-08-23T15:44:51.493Z,25.10
2022-08-23T15:47:22.057Z,25.05
2022-08-23T15:49:50.130Z,25.10
2022-08-23T15:52:18.375Z,25.14
2022-08-23T15:54:46.877Z,25.21
2022-08-23T15:57:16.477Z,25.14
2022-08-23T15:59:46.633Z,25.07
2022-08-23T16:02:16.312Z,24.92
2022-08-23T16:04:44.824Z,24.92
2022-08-23T16:07:16.076Z,24.90
2022-08-23T16:09:44.728Z,24.80
2022-08-23T16:12:12.687Z,24.83
2022-08-23T16:14:40.730Z,24.77
2022-08-23T16:17:09.313Z,24.76
2022-08-23T16:19:38.696Z,24.74
2022-08-23T16:22:06.655Z,24.73
2022-08-23T16:24:34.917Z,24.73
2022-08-23T16:27:03.011Z,24.73
2022-08-23T16:29:33.340Z,24.76
2022-08-23T16:32:01.461Z,24.78
2022-08-23T16:34:30.581Z,24.73
2022-08-23T16:37:01.633Z,24.63
2022-08-23T16:39:29.956Z,24.59
2022-08-23T16:41:58.031Z,24.57
2022-08-23T16:44:26.169Z,24.57
2022-08-23T16:46:54.495Z,24.54
2022-08-23T16:49:22.546Z,24.53
2022-08-23T16:51:50.837Z,24.50
2022-08-23T16:54:21.052Z,24.46
2022-08-23T16:56:49.347Z,24.49
2022-08-23T16:59:18.204Z,24.49
2022-08-23T17:01:49.400Z,24.46
2022-08-23T17:04:18.427Z,24.39
2022-08-23T17:06:46.685Z,24.36
2022-08-23T17:09:15.624Z,24.35
2022-08-23T17:11:45.109Z,24.33
2022-08-23T17:14:13.447Z,24.36
2022-08-23T17:16:42.223Z,24.35
2022-08-23T17:19:10.263Z,24.30
2022-08-23T17:21:39.271Z,24.29
2022-08-23T17:24:08.170Z,24.28
2022-08-23T17:26:37.206Z,24.20
2022-08-23T17:29:07.439Z,24.18
2022-08-23T17:31:35.465Z,24.16
2022-08-23T17:34:03.998Z,24.13
2022-08-23T17:36:34.330Z,24.09
2022-08-23T17:39:02.917Z,24.06
2022-08-23T17:41:31.859Z,24.05
2022-08-23T17:44:04.279Z,23.96
2022-08-23T17:46:35.047Z,23.93
2022-08-23T17:49:03.125Z,23.82
2022-08-23T17:51:31.107Z,23.78
2022-08-23T17:53:59.156Z,23.79
2022-08-23T17:56:27.582Z,23.77
2022-08-23T17:58:55.794Z,23.74
2022-08-23T18:01:23.913Z,23.67
2022-08-23T18:03:53.324Z,23.61
2022-08-23T18:06:21.431Z,23.54
2022-08-23T18:08:49.467Z,23.50
2022-08-23T18:11:17.659Z,23.43
2022-08-23T18:13:45.696Z,23.38
2022-08-23T18:16:14.333Z,23.34
2022-08-23T18:18:42.581Z,23.30
2022-08-23T18:21:13.035Z,23.22
2022-08-23T18:23:41.721Z,23.13
2022-08-23T18:26:32.536Z,23.06
2022-08-23T18:29:00.651Z,22.99
2022-08-23T18:31:28.755Z,22.92
2022-08-23T18:34:00.544Z,22.85
2022-08-23T18:36:30.294Z,22.79
2022-08-23T18:38:58.517Z,22.71
2022-08-23T18:41:26.668Z,22.65
2022-08-23T18:43:54.835Z,22.58
2022-08-23T18:46:23.206Z,22.48
2022-08-23T18:48:53.502Z,22.39
2022-08-23T18:51:23.119Z,22.28
2022-08-23T18:53:52.475Z,22.20
2022-08-23T18:56:20.449Z,22.07
2022-08-23T18:58:48.892Z,22.01
2022-08-23T19:01:21.770Z,21.90
2022-08-23T19:03:49.974Z,21.83
2022-08-23T19:06:18.425Z,21.76
2022-08-23T19:08:46.727Z,21.70
2022-08-23T19:11:16.782Z,21.63
2022-08-23T19:13:44.985Z,21.54
2022-08-23T19:16:14.139Z,21.49
2022-08-23T19:18:42.955Z,21.42
2022-08-23T19:21:11.063Z,21.35
2022-08-23T19:23:39.006Z,21.28
2022-08-23T19:26:10.289Z,21.23
2022-08-23T19:28:40.365Z,21.19
2022-08-23T19:31:09.018Z,21.14
2022-08-23T19:33:37.005Z,21.06
2022-08-23T19:36:06.432Z,20.96
2022-08-23T19:38:34.556Z,20.90
2022-08-23T19:41:05.264Z,20.80
2022-08-23T19:43:35.182Z,20.73
2022-08-23T19:46:08.001Z,20.65
2022-08-23T19:48:36.068Z,20.57
2022-08-23T19:51:04.056Z,20.53
2022-08-23T19:53:32.136Z,20.50
2022-08-23T19:56:02.651Z,20.48
2022-08-23T19:58:31.365Z,20.48
2022-08-23T20:00:59.357Z,20.47
2022-08-23T20:03:28.729Z,20.47
2022-08-23T20:05:56.772Z,20.48
2022-08-23T20:08:25.234Z,20.50
2022-08-23T20:10:53.275Z,20.53
2022-08-23T20:13:23.321Z,20.57
2022-08-23T20:15:55.646Z,20.60
2022-08-23T20:18:24.870Z,20.63
2022-08-23T20:20:55.047Z,20.63
2022-08-23T20:23:40.297Z,20.63
2022-08-23T20:26:10.349Z,20.59
2022-08-23T20:28:38.531Z,20.60
2022-08-23T20:31:25.566Z,20.59
2022-08-23T20:33:54.064Z,20.59
2022-08-23T20:36:24.654Z,20.54
2022-08-23T20:38:52.683Z,20.50
2022-08-23T20:41:20.691Z,20.48
2022-08-23T20:43:49.463Z,20.48
2022-08-23T20:46:17.566Z,20.47
2022-08-23T20:48:45.885Z,20.45
2022-08-23T20:51:14.231Z,20.41
2022-08-23T20:53:43.719Z,20.39
2022-08-23T20:56:12.223Z,20.40
2022-08-23T20:58:40.333Z,20.39
2022-08-23T21:01:11.380Z,20.33
2022-08-23T21:03:39.917Z,20.32
2022-08-23T21:06:12.438Z,20.32
2022-08-23T21:08:43.464Z,20.34
2022-08-23T21:11:13.239Z,20.33
2022-08-23T21:13:43.999Z,20.36
2022-08-23T21:16:12.158Z,20.32
2022-08-23T21:18:40.471Z,20.30
2022-08-23T21:21:08.557Z,20.30
2022-08-23T21:23:37.574Z,20.29
2022-08-23T21:26:06.506Z,20.26
2022-08-23T21:28:36.971Z,20.20
2022-08-23T21:31:06.795Z,20.16
2022-08-23T21:33:39.441Z,20.12
2022-08-23T21:36:08.480Z,20.08
2022-08-23T21:38:36.980Z,20.05
2022-08-23T21:41:07.736Z,20.05
2022-08-23T21:43:37.962Z,20.05
2022-08-23T21:46:07.223Z,20.06
2022-08-23T21:48:35.740Z,20.02
2022-08-23T21:51:03.726Z,19.99
2022-08-23T21:53:31.826Z,19.98
2022-08-23T21:55:59.867Z,19.96
2022-08-23T21:58:27.916Z,19.95
2022-08-23T22:00:57.239Z,19.89
2022-08-23T22:03:25.295Z,19.83
2022-08-23T22:05:54.267Z,19.82
2022-08-23T22:08:22.355Z,19.75
2022-08-23T22:10:57.066Z,19.72
2022-08-23T22:13:28.119Z,19.66
2022-08-23T22:15:57.967Z,19.65
2022-08-23T22:18:26.005Z,19.62
2022-08-23T22:20:54.351Z,19.62
2022-08-23T22:23:22.421Z,19.58
2022-08-23T22:25:50.467Z,19.57
2022-08-23T22:28:18.645Z,19.59
2022-08-23T22:30:46.670Z,19.57
2022-08-23T22:33:16.163Z,19.54
2022-08-23T22:35:48.827Z,19.50
2022-08-23T22:38:17.261Z,19.47
2022-08-23T22:40:48.715Z,19.40
2022-08-23T22:43:17.051Z,19.40
2022-08-23T22:45:52.018Z,19.37
2022-08-23T22:48:22.143Z,19.33
2022-08-23T22:50:50.707Z,19.27
2022-08-23T22:53:19.806Z,19.21
2022-08-23T22:55:51.201Z,19.14
2022-08-23T22:58:19.234Z,19.06
2022-08-23T23:00:47.205Z,18.97
2022-08-23T23:03:15.214Z,18.86
2022-08-23T23:05:45.732Z,18.73
2022-08-23T23:08:28.931Z,18.62
2022-08-23T23:10:58.603Z,18.53
2022-08-23T23:13:27.883Z,18.48
2022-08-23T23:15:57.208Z,18.39
2022-08-23T23:18:26.848Z,18.32
2022-08-23T23:20:57.899Z,18.32
2022-08-23T23:23:26.817Z,18.24
2022-08-23T23:25:54.783Z,18.13
2022-08-23T23:28:23.120Z,18.04
2022-08-23T23:30:53.196Z,17.93
2022-08-23T23:33:22.412Z,17.87
2022-08-23T23:35:51.949Z,17.76
2022-08-23T23:38:21.313Z,17.67
2022-08-23T23:40:49.276Z,17.56
2022-08-23T23:43:17.329Z,17.45
2022-08-23T23:45:45.343Z,17.35
2022-08-23T23:48:13.370Z,17.28
2022-08-23T23:50:45.126Z,17.16
2022-08-23T23:53:15.329Z,17.11
2022-08-23T23:55:44.680Z,17.07
2022-08-23T23:58:12.714Z,17.07
